Etusivu
METAR-TAF:

METAR-TAF

Lentoasemat :

Wakkanai, Japani

Leveyspiiri: 45-24N, Pituuspiiri: 141-48E, korkeus merenpinnasta: 8 m

Tämänhetkinen sää

Tämä raportti tehtiin 1 tunti ja 9 minuuttia sitten, kello 06.00 UTC
Tuuli 10 kn lännestä/lounaasta
Lämpötila 11°C
Kosteus 87%
Ilmanpaine 1006 hPa
Näkyvyys 10 km tai enemmän
Muutamia pilviä 900 ft:n korkeudessa
Hajanaisia pilviä 1000 ft:n korkeudessa
Hajonneita pilviä 1500 ft:n korkeudessa

METAR: RJCW 260600Z 25010KT 9999 FEW009 SCT010 BKN015 11/09 Q1006

Aika: 16:09 (07:09 UTC)


TAF: puuttuu

Säähavainnot ja -ennusteet yli 4000 lentoasemalta (METAR- ja TAF-raportit).

Käytössä olevat sääasemat on merkitty karttaan keltaisilla ja punaisilla pisteillä.

Aseta hiiri pisteen päälle nähdäksesi sääaseman nimen.

Klikkaa sitten nähdäksesi säähavainnot ja -ennusteet.

Kartan vaihtaminen: klikkaa mustalla rastilla varustettuja vihreitä pisteitä, niin voit zoomata sisään; viivalla varustettua vihreää pistettä, niin voit zoomata ulos tai vihreitä nuolia, niin pääset viereisille kartoille.


METAR-TAF: